createdAt,value
2019-02-25T00:00:12.049Z,5.56
2019-02-25T00:02:39.294Z,5.53
2019-02-25T00:05:07.038Z,5.52
2019-02-25T00:07:34.295Z,5.46
2019-02-25T00:10:01.592Z,5.40
2019-02-25T00:12:28.867Z,5.38
2019-02-25T00:14:56.097Z,5.37
2019-02-25T00:17:23.402Z,5.38
2019-02-25T00:19:51.701Z,5.37
2019-02-25T00:22:18.954Z,5.37
2019-02-25T00:24:46.811Z,5.36
2019-02-25T00:27:14.054Z,5.37
2019-02-25T00:29:41.359Z,5.37
2019-02-25T00:32:08.648Z,5.37
2019-02-25T00:34:35.913Z,5.37
2019-02-25T00:37:03.243Z,5.34
2019-02-25T00:39:30.483Z,5.31
2019-02-25T00:41:57.762Z,5.29
2019-02-25T00:44:25.053Z,5.27
2019-02-25T00:46:54.423Z,5.26
2019-02-25T00:49:22.053Z,5.24
2019-02-25T00:51:58.855Z,5.18
2019-02-25T00:54:26.113Z,5.12
2019-02-25T00:56:53.391Z,5.11
2019-02-25T00:59:20.631Z,5.11
2019-02-25T01:01:47.885Z,5.10
2019-02-25T01:04:15.179Z,5.09
2019-02-25T01:06:42.433Z,5.02
2019-02-25T01:09:09.720Z,4.93
2019-02-25T01:11:36.998Z,4.90
2019-02-25T01:14:04.358Z,4.87
2019-02-25T01:16:31.608Z,4.87
2019-02-25T01:19:01.133Z,4.87
2019-02-25T01:21:28.373Z,4.87
2019-02-25T01:23:55.745Z,4.88
2019-02-25T01:26:25.331Z,4.85
2019-02-25T01:28:52.587Z,4.80
2019-02-25T01:31:19.905Z,4.82
2019-02-25T01:33:47.209Z,4.81
2019-02-25T01:36:14.443Z,4.81
2019-02-25T01:38:41.735Z,4.80
2019-02-25T01:41:08.999Z,4.79
2019-02-25T01:43:36.251Z,4.78
2019-02-25T01:46:03.553Z,4.75
2019-02-25T01:48:30.799Z,4.73
2019-02-25T01:50:58.049Z,4.72
2019-02-25T01:53:25.324Z,4.73
2019-02-25T01:55:52.573Z,4.71
2019-02-25T01:58:19.843Z,4.69
2019-02-25T02:00:47.103Z,4.68
2019-02-25T02:03:14.389Z,4.66
2019-02-25T02:05:41.642Z,4.65
2019-02-25T02:08:08.874Z,4.64
2019-02-25T02:10:36.136Z,4.63
2019-02-25T02:13:03.373Z,4.59
2019-02-25T02:15:30.651Z,4.57
2019-02-25T02:17:57.937Z,4.57
2019-02-25T02:20:25.233Z,4.56
2019-02-25T02:22:52.469Z,4.58
2019-02-25T02:25:19.751Z,4.54
2019-02-25T02:27:47.015Z,4.52
2019-02-25T02:30:15.986Z,4.53
2019-02-25T02:32:43.255Z,4.54
2019-02-25T02:35:10.694Z,4.52
2019-02-25T02:37:37.947Z,4.46
2019-02-25T02:40:06.052Z,4.40
2019-02-25T02:42:33.513Z,4.39
2019-02-25T02:45:16.919Z,4.37
2019-02-25T02:47:56.336Z,4.39
2019-02-25T02:50:25.052Z,4.41
2019-02-25T02:52:52.318Z,4.41
2019-02-25T02:55:19.591Z,4.40
2019-02-25T02:57:46.838Z,4.38
2019-02-25T03:00:16.010Z,4.39
2019-02-25T03:02:43.294Z,4.37
2019-02-25T03:05:12.587Z,4.36
2019-02-25T03:07:39.866Z,4.34
2019-02-25T03:10:08.301Z,4.34
2019-02-25T03:12:35.555Z,4.34
2019-02-25T03:15:03.387Z,4.37
2019-02-25T03:17:30.656Z,4.37
2019-02-25T03:19:58.363Z,4.37
2019-02-25T03:22:25.622Z,4.32
2019-02-25T03:24:52.933Z,4.33
2019-02-25T03:27:20.171Z,4.36
2019-02-25T03:29:47.455Z,4.41
2019-02-25T03:32:14.709Z,4.39
2019-02-25T03:34:41.966Z,4.37
2019-02-25T03:37:09.249Z,4.36
2019-02-25T03:39:36.527Z,4.32
2019-02-25T03:42:03.978Z,4.32
2019-02-25T03:44:31.315Z,4.29
2019-02-25T03:46:58.544Z,4.28
2019-02-25T03:49:25.801Z,4.27
2019-02-25T03:51:53.125Z,4.26
2019-02-25T03:54:20.354Z,4.25
2019-02-25T03:56:47.628Z,4.23
2019-02-25T03:59:14.926Z,4.21
2019-02-25T04:01:42.257Z,4.20
2019-02-25T04:04:09.495Z,4.18
2019-02-25T04:06:36.896Z,4.17
2019-02-25T04:09:05.876Z,4.12
2019-02-25T04:11:33.150Z,4.11
2019-02-25T04:14:00.382Z,4.11
2019-02-25T04:16:27.975Z,4.10
2019-02-25T04:18:55.220Z,4.09
2019-02-25T04:21:22.504Z,4.06
2019-02-25T04:23:49.820Z,4.01
2019-02-25T04:26:17.133Z,3.98
2019-02-25T04:28:44.386Z,3.99
2019-02-25T04:31:11.615Z,3.94
2019-02-25T04:33:38.903Z,3.90
2019-02-25T04:36:06.147Z,3.90
2019-02-25T04:38:33.467Z,3.91
2019-02-25T04:41:00.696Z,3.92
2019-02-25T04:43:27.939Z,3.94
2019-02-25T04:45:55.222Z,3.94
2019-02-25T04:48:22.484Z,3.92
2019-02-25T04:50:49.732Z,3.95
2019-02-25T04:53:17.024Z,3.97
2019-02-25T04:55:44.313Z,3.96
2019-02-25T04:58:11.569Z,3.93
2019-02-25T05:00:38.840Z,3.88
2019-02-25T05:03:06.097Z,3.87
2019-02-25T05:05:33.345Z,3.87
2019-02-25T05:08:00.664Z,3.86
2019-02-25T05:10:27.896Z,3.83
2019-02-25T05:13:01.327Z,3.81
2019-02-25T05:15:28.916Z,3.77
2019-02-25T05:17:56.167Z,3.75
2019-02-25T05:20:23.460Z,3.74
2019-02-25T05:22:50.679Z,3.71
2019-02-25T05:25:17.970Z,3.69
2019-02-25T05:27:45.278Z,3.67
2019-02-25T05:30:12.629Z,3.65
2019-02-25T05:32:39.869Z,3.64
2019-02-25T05:35:07.987Z,3.65
2019-02-25T05:37:35.313Z,3.63
2019-02-25T05:40:02.741Z,3.61
2019-02-25T05:42:29.980Z,3.61
2019-02-25T05:44:57.254Z,3.59
2019-02-25T05:47:24.498Z,3.57
2019-02-25T05:49:51.737Z,3.56
2019-02-25T05:52:19.017Z,3.56
2019-02-25T05:54:46.245Z,3.54
2019-02-25T05:57:13.503Z,3.53
2019-02-25T05:59:40.894Z,3.54
2019-02-25T06:02:08.144Z,3.53
2019-02-25T06:04:35.415Z,3.52
2019-02-25T06:07:02.698Z,3.51
2019-02-25T06:09:29.919Z,3.49
2019-02-25T06:11:57.147Z,3.49
2019-02-25T06:14:24.405Z,3.48
2019-02-25T06:16:51.689Z,3.48
2019-02-25T06:19:18.917Z,3.46
2019-02-25T06:21:46.196Z,3.46
2019-02-25T06:24:13.513Z,3.45
2019-02-25T06:26:40.790Z,3.42
2019-02-25T06:29:08.078Z,3.40
2019-02-25T06:31:35.361Z,3.37
2019-02-25T06:34:02.589Z,3.30
2019-02-25T06:36:29.822Z,3.30
2019-02-25T06:38:57.113Z,3.31
2019-02-25T06:41:24.356Z,3.33
2019-02-25T06:43:51.603Z,3.36
2019-02-25T06:46:18.875Z,3.39
2019-02-25T06:48:46.116Z,3.38
2019-02-25T06:51:16.245Z,3.35
2019-02-25T06:53:43.597Z,3.37
2019-02-25T06:56:10.838Z,3.36
2019-02-25T06:58:38.112Z,3.30
2019-02-25T07:01:05.406Z,3.23
2019-02-25T07:03:33.636Z,3.28
2019-02-25T07:06:14.976Z,3.35
2019-02-25T07:09:07.377Z,3.37
2019-02-25T07:12:00.089Z,3.30
2019-02-25T07:14:49.705Z,3.23
2019-02-25T07:17:39.108Z,3.35
2019-02-25T07:20:33.562Z,3.43
2019-02-25T07:23:30.458Z,3.53
2019-02-25T07:26:13.672Z,3.55
2019-02-25T07:28:46.489Z,3.63
2019-02-25T07:31:51.498Z,3.69
2019-02-25T07:34:41.081Z,3.67
2019-02-25T07:37:37.204Z,3.68
2019-02-25T07:40:27.580Z,3.77
2019-02-25T07:43:02.702Z,3.92
2019-02-25T07:45:47.858Z,4.10
2019-02-25T07:48:34.676Z,4.26
2019-02-25T07:51:11.026Z,4.36
2019-02-25T07:53:57.865Z,4.44
2019-02-25T07:56:41.944Z,4.52
2019-02-25T07:59:31.443Z,4.52
2019-02-25T08:02:24.067Z,4.53
2019-02-25T08:05:29.216Z,4.73
2019-02-25T08:08:21.999Z,4.89
2019-02-25T08:11:23.773Z,5.07
2019-02-25T08:14:13.520Z,5.15
2019-02-25T08:17:12.162Z,5.30
2019-02-25T08:19:58.977Z,5.43
2019-02-25T08:22:36.068Z,5.61
2019-02-25T08:25:21.843Z,5.74
2019-02-25T08:28:27.025Z,5.89
2019-02-25T08:31:12.944Z,6.09
2019-02-25T08:33:55.545Z,6.32
2019-02-25T08:37:25.080Z,6.48
2019-02-25T08:40:24.446Z,6.69
2019-02-25T08:42:55.943Z,6.99
2019-02-25T08:45:46.174Z,7.25
2019-02-25T08:48:35.048Z,7.37
2019-02-25T08:51:02.345Z,7.50
2019-02-25T08:53:31.933Z,7.68
2019-02-25T08:55:59.183Z,7.91
2019-02-25T08:58:26.482Z,8.13
2019-02-25T09:00:53.756Z,8.35
2019-02-25T09:03:21.081Z,8.49
2019-02-25T09:05:48.327Z,8.73
2019-02-25T09:08:15.580Z,8.92
2019-02-25T09:10:42.873Z,9.05
2019-02-25T09:13:10.112Z,9.27
2019-02-25T09:15:37.360Z,9.31
2019-02-25T09:18:03.501Z,9.38
2019-02-25T09:20:30.751Z,9.50
2019-02-25T09:22:57.988Z,9.75
2019-02-25T09:25:25.268Z,10.11
2019-02-25T09:27:52.645Z,10.11
2019-02-25T09:30:20.009Z,10.35
2019-02-25T09:32:49.397Z,10.60
2019-02-25T09:35:16.655Z,10.89
2019-02-25T09:37:43.957Z,10.89
2019-02-25T09:40:13.139Z,11.09
2019-02-25T09:42:40.484Z,11.23
2019-02-25T09:45:09.334Z,11.40
2019-02-25T09:47:36.581Z,11.55
2019-02-25T09:50:04.429Z,11.72
2019-02-25T09:52:31.695Z,11.70
2019-02-25T09:54:58.965Z,11.90
2019-02-25T09:57:26.232Z,11.99
2019-02-25T09:59:53.599Z,12.02
2019-02-25T10:02:20.892Z,12.07
2019-02-25T10:04:48.159Z,12.20
2019-02-25T10:07:15.449Z,12.22
2019-02-25T10:09:42.715Z,12.24
2019-02-25T10:12:09.956Z,12.40
2019-02-25T10:14:37.246Z,12.46
2019-02-25T10:17:04.559Z,12.46
2019-02-25T10:19:31.808Z,12.54
2019-02-25T10:21:59.109Z,12.50
2019-02-25T10:24:26.353Z,12.61
2019-02-25T10:26:53.698Z,12.71
2019-02-25T10:29:20.959Z,12.74
2019-02-25T10:31:48.221Z,12.84
2019-02-25T10:34:15.508Z,12.90
2019-02-25T10:36:44.026Z,12.97
2019-02-25T10:39:13.046Z,12.80
2019-02-25T10:41:41.153Z,12.93
2019-02-25T10:44:08.662Z,12.92
2019-02-25T10:46:36.017Z,13.00
2019-02-25T10:49:11.157Z,13.10
2019-02-25T10:51:32.712Z,13.11
2019-02-25T10:53:59.968Z,13.18
2019-02-25T10:56:34.819Z,13.22
2019-02-25T10:59:03.960Z,13.25
2019-02-25T11:01:31.240Z,13.31
2019-02-25T11:03:58.541Z,13.28
2019-02-25T11:06:27.335Z,13.30
2019-02-25T11:09:01.267Z,13.41
2019-02-25T11:11:32.086Z,13.30
2019-02-25T11:14:00.991Z,13.46
2019-02-25T11:16:28.682Z,13.56
2019-02-25T11:18:57.021Z,13.68
2019-02-25T11:21:25.281Z,13.62
2019-02-25T11:23:53.407Z,13.68
2019-02-25T11:26:20.968Z,13.64
2019-02-25T11:28:48.286Z,13.74
2019-02-25T11:31:26.368Z,13.77
2019-02-25T11:33:52.969Z,13.82
2019-02-25T11:36:21.982Z,13.83
2019-02-25T11:38:49.504Z,13.97
2019-02-25T11:41:16.752Z,14.03
2019-02-25T11:43:45.861Z,14.02
2019-02-25T11:46:13.233Z,14.05
2019-02-25T11:48:40.480Z,14.11
2019-02-25T11:51:07.803Z,14.22
2019-02-25T11:53:35.057Z,14.16
2019-02-25T11:56:02.497Z,14.22
2019-02-25T11:58:29.863Z,14.27
2019-02-25T12:00:57.161Z,14.34
2019-02-25T12:03:26.572Z,14.43
2019-02-25T12:05:53.878Z,14.49
2019-02-25T12:08:21.196Z,14.44
2019-02-25T12:10:48.576Z,14.44
2019-02-25T12:13:15.852Z,14.50
2019-02-25T12:15:43.255Z,14.37
2019-02-25T12:18:10.489Z,14.45
2019-02-25T12:20:37.813Z,14.60
2019-02-25T12:23:05.173Z,14.65
2019-02-25T12:25:32.413Z,14.71
2019-02-25T12:28:00.336Z,14.84
2019-02-25T12:30:27.717Z,14.84
2019-02-25T12:32:54.990Z,14.89
2019-02-25T12:35:22.703Z,14.85
2019-02-25T12:37:49.974Z,14.88
2019-02-25T12:40:18.020Z,14.87
2019-02-25T12:42:46.040Z,14.98
2019-02-25T12:45:14.146Z,15.05
2019-02-25T12:47:41.485Z,15.15
2019-02-25T12:50:09.450Z,15.24
2019-02-25T12:52:36.767Z,15.32
2019-02-25T12:55:04.455Z,15.34
2019-02-25T12:57:31.697Z,15.40
2019-02-25T12:59:59.004Z,15.33
2019-02-25T13:02:26.522Z,15.28
2019-02-25T13:04:53.934Z,15.48
2019-02-25T13:07:21.250Z,15.45
2019-02-25T13:09:48.568Z,15.53
2019-02-25T13:12:15.876Z,15.65
2019-02-25T13:14:43.175Z,15.70
2019-02-25T13:17:10.434Z,15.72
2019-02-25T13:19:37.775Z,15.84
2019-02-25T13:22:05.034Z,15.88
2019-02-25T13:24:32.864Z,15.73
2019-02-25T13:27:03.181Z,15.83
2019-02-25T13:29:30.852Z,15.92
2019-02-25T13:31:58.174Z,15.91
2019-02-25T13:34:25.447Z,15.84
2019-02-25T13:36:52.743Z,15.83
2019-02-25T13:39:20.156Z,15.92
2019-02-25T13:41:47.512Z,15.90
2019-02-25T13:44:15.308Z,15.90
2019-02-25T13:46:42.608Z,16.01
2019-02-25T13:49:09.910Z,15.90
2019-02-25T13:51:37.188Z,15.82
2019-02-25T13:54:04.532Z,15.75
2019-02-25T13:56:31.851Z,15.56
2019-02-25T13:58:59.109Z,15.60
2019-02-25T14:01:28.859Z,15.62
2019-02-25T14:03:55.806Z,15.59
2019-02-25T14:06:23.105Z,15.62
2019-02-25T14:08:50.435Z,15.51
2019-02-25T14:11:17.796Z,15.67
2019-02-25T14:13:45.302Z,15.57
2019-02-25T14:16:12.677Z,15.64
2019-02-25T14:18:39.990Z,15.69
2019-02-25T14:21:07.343Z,15.70
2019-02-25T14:23:34.598Z,15.68
2019-02-25T14:26:01.932Z,15.69
2019-02-25T14:28:30.075Z,15.65
2019-02-25T14:30:57.678Z,15.64
2019-02-25T14:33:24.962Z,15.49
2019-02-25T14:35:53.164Z,15.52
2019-02-25T14:38:22.679Z,15.47
2019-02-25T14:40:51.367Z,15.53
2019-02-25T14:43:20.583Z,15.51
2019-02-25T14:45:51.768Z,15.38
2019-02-25T14:48:20.455Z,15.30
2019-02-25T14:50:46.766Z,15.42
2019-02-25T14:53:14.494Z,15.42
2019-02-25T14:55:42.800Z,15.40
2019-02-25T14:58:12.752Z,15.33
2019-02-25T15:00:40.680Z,15.34
2019-02-25T15:03:08.154Z,15.41
2019-02-25T15:05:35.514Z,15.39
2019-02-25T15:08:03.006Z,15.37
2019-02-25T15:10:31.573Z,15.42
2019-02-25T15:13:01.639Z,15.44
2019-02-25T15:15:28.845Z,15.42
2019-02-25T15:17:56.328Z,15.45
2019-02-25T15:20:25.959Z,15.42
2019-02-25T15:22:53.039Z,15.43
2019-02-25T15:25:20.561Z,15.38
2019-02-25T15:27:47.924Z,15.36
2019-02-25T15:30:18.584Z,15.36
2019-02-25T15:32:55.591Z,15.21
2019-02-25T15:35:16.993Z,15.32
2019-02-25T15:37:46.581Z,15.34
2019-02-25T15:40:17.937Z,15.28
2019-02-25T15:42:43.868Z,15.26
2019-02-25T15:45:14.379Z,15.35
2019-02-25T15:47:42.456Z,15.37
2019-02-25T15:50:12.760Z,15.39
2019-02-25T15:52:40.514Z,15.37
2019-02-25T15:55:17.337Z,15.34
2019-02-25T15:57:45.593Z,15.34
2019-02-25T16:00:16.202Z,15.31
2019-02-25T16:02:43.531Z,15.27
2019-02-25T16:05:11.092Z,15.27
2019-02-25T16:07:40.111Z,15.27
2019-02-25T16:10:09.594Z,15.29
2019-02-25T16:12:38.502Z,15.33
2019-02-25T16:15:11.113Z,15.36
2019-02-25T16:17:39.718Z,15.39
2019-02-25T16:20:08.343Z,15.38
2019-02-25T16:22:36.393Z,15.35
2019-02-25T16:25:07.343Z,15.29
2019-02-25T16:27:36.926Z,15.27
2019-02-25T16:30:08.067Z,15.25
2019-02-25T16:32:35.356Z,15.22
2019-02-25T16:35:06.753Z,15.13
2019-02-25T16:37:35.571Z,15.05
2019-02-25T16:40:05.778Z,14.97
2019-02-25T16:42:33.134Z,14.84
2019-02-25T16:45:03.833Z,14.79
2019-02-25T16:47:32.912Z,14.66
2019-02-25T16:50:00.762Z,14.06
2019-02-25T16:52:28.474Z,13.92
2019-02-25T16:54:55.841Z,13.74
2019-02-25T16:57:24.687Z,13.61
2019-02-25T16:59:53.755Z,13.50
2019-02-25T17:02:21.637Z,13.34
2019-02-25T17:04:48.966Z,13.19
2019-02-25T17:07:17.849Z,13.00
2019-02-25T17:09:45.489Z,12.89
2019-02-25T17:12:12.885Z,12.84
2019-02-25T17:14:40.965Z,12.81
2019-02-25T17:17:08.816Z,12.69
2019-02-25T17:19:38.485Z,12.66
2019-02-25T17:22:05.558Z,12.62
2019-02-25T17:24:34.758Z,12.55
2019-02-25T17:27:04.439Z,12.51
2019-02-25T17:29:31.958Z,12.43
2019-02-25T17:32:01.896Z,12.33
2019-02-25T17:34:29.721Z,12.26
2019-02-25T17:36:57.222Z,12.16
2019-02-25T17:39:24.490Z,12.08
2019-02-25T17:41:51.808Z,11.45
2019-02-25T17:44:20.690Z,11.69
2019-02-25T17:46:48.261Z,11.56
2019-02-25T17:49:17.349Z,10.97
2019-02-25T17:51:44.721Z,10.66
2019-02-25T17:54:12.509Z,10.66
2019-02-25T17:56:42.946Z,10.68
2019-02-25T17:59:10.381Z,10.56
2019-02-25T18:01:37.681Z,10.25
2019-02-25T18:04:06.683Z,10.24
2019-02-25T18:06:36.201Z,10.09
2019-02-25T18:09:07.758Z,10.06
2019-02-25T18:11:36.919Z,10.10
2019-02-25T18:14:04.647Z,10.05
2019-02-25T18:16:33.263Z,10.00
2019-02-25T18:19:01.226Z,9.94
2019-02-25T18:21:29.045Z,9.94
2019-02-25T18:23:56.465Z,9.95
2019-02-25T18:26:24.062Z,9.97
2019-02-25T18:28:52.636Z,9.96
2019-02-25T18:31:20.455Z,10.02
2019-02-25T18:33:48.609Z,10.02
2019-02-25T18:36:17.149Z,10.03
2019-02-25T18:38:46.222Z,10.04
2019-02-25T18:41:13.762Z,10.04
2019-02-25T18:43:42.847Z,10.09
2019-02-25T18:46:10.237Z,10.08
2019-02-25T18:48:37.595Z,10.05
2019-02-25T18:51:05.036Z,10.02
2019-02-25T18:53:32.786Z,10.02
2019-02-25T18:56:00.059Z,9.93
2019-02-25T18:58:27.342Z,9.93
2019-02-25T19:00:57.009Z,9.90
2019-02-25T19:03:24.918Z,9.90
2019-02-25T19:05:54.963Z,9.85
2019-02-25T19:08:24.624Z,9.82
2019-02-25T19:10:54.825Z,9.71
2019-02-25T19:13:23.287Z,9.72
2019-02-25T19:15:53.072Z,9.56
2019-02-25T19:18:21.207Z,9.31
2019-02-25T19:20:48.504Z,9.31
2019-02-25T19:23:16.584Z,9.43
2019-02-25T19:25:44.184Z,9.43
2019-02-25T19:28:14.252Z,9.36
2019-02-25T19:30:40.936Z,9.39
2019-02-25T19:33:11.381Z,9.39
2019-02-25T19:35:38.985Z,9.35
2019-02-25T19:38:07.844Z,9.29
2019-02-25T19:40:38.448Z,9.21
2019-02-25T19:43:06.418Z,9.21
2019-02-25T19:45:34.343Z,9.10
2019-02-25T19:48:05.204Z,9.10
2019-02-25T19:50:34.210Z,9.06
2019-02-25T19:53:04.617Z,8.99
2019-02-25T19:55:30.955Z,8.97
2019-02-25T19:57:59.689Z,8.97
2019-02-25T20:00:29.729Z,8.94
2019-02-25T20:03:05.047Z,8.92
2019-02-25T20:05:27.732Z,8.88
2019-02-25T20:07:57.413Z,8.70
2019-02-25T20:10:25.329Z,8.29
2019-02-25T20:12:53.293Z,8.30
2019-02-25T20:15:24.904Z,8.30
2019-02-25T20:17:50.604Z,8.27
2019-02-25T20:20:19.721Z,8.27
2019-02-25T20:22:47.359Z,8.23
2019-02-25T20:25:16.668Z,8.23
2019-02-25T20:27:44.854Z,8.19
2019-02-25T20:30:13.755Z,8.23
2019-02-25T20:32:42.885Z,8.18
2019-02-25T20:35:13.997Z,7.97
2019-02-25T20:37:40.965Z,8.10
2019-02-25T20:40:09.219Z,8.18
2019-02-25T20:42:36.560Z,8.23
2019-02-25T20:45:05.382Z,8.21
2019-02-25T20:47:32.685Z,8.16
2019-02-25T20:50:00.603Z,8.21
2019-02-25T20:52:29.173Z,8.23
2019-02-25T20:54:56.479Z,8.23
2019-02-25T20:57:23.754Z,8.22
2019-02-25T20:59:52.798Z,8.22
2019-02-25T21:02:21.131Z,8.18
2019-02-25T21:04:51.884Z,8.17
2019-02-25T21:07:19.211Z,8.18
2019-02-25T21:09:46.514Z,8.14
2019-02-25T21:12:15.679Z,8.14
2019-02-25T21:14:44.861Z,8.05
2019-02-25T21:17:12.172Z,7.75
2019-02-25T21:19:40.042Z,7.75
2019-02-25T21:22:08.885Z,7.78
2019-02-25T21:24:37.550Z,7.78
2019-02-25T21:27:06.360Z,7.79
2019-02-25T21:29:36.506Z,7.75
2019-02-25T21:32:03.668Z,7.75
2019-02-25T21:34:32.848Z,7.70
2019-02-25T21:37:00.729Z,7.67
2019-02-25T21:39:29.284Z,7.64
2019-02-25T21:41:56.512Z,7.61
2019-02-25T21:44:26.207Z,7.56
2019-02-25T21:46:54.052Z,7.52
2019-02-25T21:49:25.114Z,7.49
2019-02-25T21:51:51.099Z,7.48
2019-02-25T21:54:18.367Z,7.40
2019-02-25T21:56:45.685Z,7.34
2019-02-25T21:59:15.084Z,7.31
2019-02-25T22:01:42.084Z,7.28
2019-02-25T22:04:13.161Z,7.26
2019-02-25T22:06:38.571Z,7.19
2019-02-25T22:09:06.596Z,7.09
2019-02-25T22:11:33.916Z,7.09
2019-02-25T22:14:01.171Z,7.09
2019-02-25T22:16:30.106Z,7.03
2019-02-25T22:18:58.743Z,6.99
2019-02-25T22:21:26.194Z,6.93
2019-02-25T22:23:56.165Z,6.90
2019-02-25T22:26:26.587Z,6.86
2019-02-25T22:28:53.222Z,6.81
2019-02-25T22:31:21.225Z,6.75
2019-02-25T22:33:48.549Z,6.70
2019-02-25T22:36:15.899Z,6.69
2019-02-25T22:38:43.214Z,6.67
2019-02-25T22:41:10.502Z,6.63
2019-02-25T22:43:39.144Z,6.60
2019-02-25T22:46:09.208Z,6.54
2019-02-25T22:48:37.566Z,6.47
2019-02-25T22:51:07.012Z,6.39
2019-02-25T22:53:34.428Z,6.34
2019-02-25T22:56:03.972Z,6.27
2019-02-25T22:58:33.959Z,6.23
2019-02-25T23:01:09.558Z,6.18
2019-02-25T23:03:36.842Z,6.16
2019-02-25T23:06:04.245Z,6.15
2019-02-25T23:08:31.567Z,6.13
2019-02-25T23:10:59.473Z,6.12
2019-02-25T23:13:29.333Z,6.11
2019-02-25T23:15:55.965Z,6.08
2019-02-25T23:18:25.827Z,6.05
2019-02-25T23:20:54.771Z,6.04
2019-02-25T23:23:25.394Z,6.02
2019-02-25T23:25:51.506Z,6.02
2019-02-25T23:28:21.018Z,6.03
2019-02-25T23:30:51.011Z,6.04
2019-02-25T23:33:19.738Z,6.05
2019-02-25T23:35:49.177Z,6.02
2019-02-25T23:38:16.689Z,6.03
2019-02-25T23:41:09.992Z,6.03
2019-02-25T23:44:07.124Z,6.03
2019-02-25T23:46:37.232Z,6.02
2019-02-25T23:49:04.947Z,5.98
2019-02-25T23:51:32.185Z,5.99
2019-02-25T23:53:59.581Z,6.02
2019-02-25T23:56:27.516Z,6.00
2019-02-25T23:58:56.000Z,6.02
